Time;durP1;ratioP1;P1;durP2;ratioP2;P2;SDS_P1;SDS_P2;PMS_P1;PMS_P2;Temp;Humidity;BMP_temperature;BMP_pressure;BME280_temperature;BME280_humidity;BME280_pressure;Samples;Min_cycle;Max_cycle;Signal;HPM_P1;HPM_P2
2022/08/18 00:01:23;;;;;;;11.97;8.33;;;;;;;23.55;66.54;99915.14;1713452;82;21569;-74
2022/08/18 00:03:49;;;;;;;10.00;8.33;;;;;;;23.53;66.63;99918.82;1721137;83;21061;-74
2022/08/18 00:06:17;;;;;;;11.63;8.47;;;;;;;23.52;66.71;99910.41;1721316;82;21068;-74
2022/08/18 00:08:45;;;;;;;14.33;9.00;;;;;;;23.49;66.79;99912.48;1721401;83;20960;-74
2022/08/18 00:11:13;;;;;;;11.60;8.37;;;;;;;23.48;66.90;99912.28;1713570;82;21485;-73
2022/08/18 00:13:40;;;;;;;10.53;9.10;;;;;;;23.48;66.96;99912.86;1678405;83;20993;-75
2022/08/18 00:16:07;;;;;;;11.70;8.40;;;;;;;23.44;67.05;99911.43;1722300;83;20954;-74
2022/08/18 00:18:34;;;;;;;10.83;8.67;;;;;;;23.41;67.09;99906.12;1714513;82;21012;-75
2022/08/18 00:21:01;;;;;;;19.17;8.60;;;;;;;23.40;67.10;99907.28;1728417;80;21006;-73
2022/08/18 00:23:28;;;;;;;9.93;8.83;;;;;;;23.38;67.15;99910.92;1749000;80;21087;-74
2022/08/18 00:25:58;;;;;;;13.70;8.90;;;;;;;23.36;67.24;99911.88;1746268;80;21046;-74
2022/08/18 00:28:24;;;;;;;11.93;8.50;;;;;;;23.33;67.34;99914.50;1748241;80;21030;-74
2022/08/18 00:30:51;;;;;;;13.10;8.93;;;;;;;23.29;67.47;99910.92;1748517;80;20995;-74
2022/08/18 00:33:18;;;;;;;13.63;9.43;;;;;;;23.26;67.51;99908.91;1770902;79;20971;-74
2022/08/18 00:35:45;;;;;;;14.27;8.77;;;;;;;23.23;67.64;99910.44;1779696;79;21214;-73
2022/08/18 00:38:12;;;;;;;10.77;8.87;;;;;;;23.20;67.75;99907.06;1779378;79;20987;-75
2022/08/18 00:40:43;;;;;;;11.50;8.73;;;;;;;23.18;67.79;99904.68;1779174;79;21019;-75
2022/08/18 00:43:18;;;;;;;12.15;8.90;;;;;;;23.14;67.86;99901.10;1779757;79;21011;-74
2022/08/18 00:45:45;;;;;;;12.60;9.30;;;;;;;23.11;67.93;99903.17;1779929;79;20952;-74
2022/08/18 00:48:13;;;;;;;10.30;8.73;;;;;;;23.08;68.00;99895.72;1779570;79;21093;-74
2022/08/18 00:50:51;;;;;;;10.87;8.23;;;;;;;23.08;68.07;99895.72;1779877;79;20963;-75
2022/08/18 00:53:44;;;;;;;10.63;8.13;;;;;;;23.05;68.12;99903.23;1778306;79;21035;-75
2022/08/18 00:56:23;;;;;;;12.00;8.63;;;;;;;23.03;68.16;99906.88;1779763;79;20979;-73
2022/08/18 00:58:59;;;;;;;10.30;8.57;;;;;;;23.00;68.20;99907.63;1779558;79;20963;-74
2022/08/18 01:01:28;;;;;;;10.80;8.30;;;;;;;22.98;68.23;99906.39;1775889;79;21141;-74
2022/08/18 01:04:00;;;;;;;11.50;8.77;;;;;;;22.98;68.25;99908.53;1779521;79;20940;-74
2022/08/18 01:06:36;;;;;;;11.27;8.90;;;;;;;22.99;68.09;99900.58;1779714;79;20999;-74
2022/08/18 01:09:03;;;;;;;13.23;8.97;;;;;;;23.08;67.84;99897.66;1779487;79;21042;-74
2022/08/18 01:11:31;;;;;;;15.77;9.50;;;;;;;22.96;68.18;99899.92;1779433;79;20919;-75
2022/08/18 01:13:59;;;;;;;12.50;9.20;;;;;;;22.92;68.28;99909.34;1779520;79;21071;-75
2022/08/18 01:22:01;;;;;;;11.53;8.87;;;;;;;22.83;68.50;99912.05;1779837;79;20939;-75
2022/08/18 01:27:17;;;;;;;10.30;9.10;;;;;;;22.78;68.60;99910.98;1751587;80;21288;-75
2022/08/18 01:29:47;;;;;;;10.70;8.43;;;;;;;22.76;68.65;99913.26;1761968;79;21015;-75
2022/08/18 01:32:19;;;;;;;12.53;9.10;;;;;;;22.73;68.72;99916.69;1754551;79;21046;-74
2022/08/18 01:34:47;;;;;;;11.83;8.60;;;;;;;22.68;68.84;99913.10;1779583;79;21053;-74
2022/08/18 01:37:20;;;;;;;11.10;8.67;;;;;;;22.66;68.94;99912.66;1779748;79;21078;-74
2022/08/18 01:39:46;;;;;;;14.93;8.93;;;;;;;22.66;69.01;99917.31;1779551;79;21280;-74
2022/08/18 01:42:17;;;;;;;12.43;8.93;;;;;;;22.64;69.04;99917.69;1781239;79;20999;-73
2022/08/18 01:44:46;;;;;;;;;;;;;;;22.60;69.07;99916.00;1784100;79;21038;-74
2022/08/18 01:47:17;;;;;;;12.27;9.33;;;;;;;22.57;69.15;99916.13;1748567;80;20178;-74
2022/08/18 01:49:43;;;;;;;12.83;8.80;;;;;;;22.54;69.16;99918.22;1780025;79;21467;-74
2022/08/18 01:52:18;;;;;;;10.63;9.50;;;;;;;22.52;69.26;99921.08;1779955;79;21581;-75
2022/08/18 01:54:47;;;;;;;16.43;9.47;;;;;;;22.50;69.31;99924.13;1779575;79;20995;-74
2022/08/18 01:57:15;;;;;;;9.73;8.70;;;;;;;22.46;69.34;99926.77;1779149;79;21062;-74
2022/08/18 01:59:41;;;;;;;10.47;8.87;;;;;;;22.44;69.34;99928.26;1775942;79;20975;-74
2022/08/18 02:02:12;;;;;;;12.80;9.20;;;;;;;22.53;69.15;99927.52;1779822;79;21034;-74
2022/08/18 02:04:39;;;;;;;11.10;9.17;;;;;;;22.63;68.83;99929.69;1768978;79;21181;-74
2022/08/18 02:07:08;;;;;;;13.63;8.77;;;;;;;22.56;68.91;99932.25;1748644;80;21708;-75
2022/08/18 02:09:36;;;;;;;13.67;9.03;;;;;;;22.47;69.17;99929.73;1748745;80;20995;-74
2022/08/18 02:12:05;;;;;;;12.10;8.93;;;;;;;22.46;69.23;99928.70;1748772;80;21677;-74
2022/08/18 02:14:34;;;;;;;11.93;8.70;;;;;;;22.48;69.20;99931.30;1748700;80;21540;-74
2022/08/18 02:17:06;;;;;;;11.47;9.00;;;;;;;22.40;69.31;99928.75;1748670;80;21053;-74
2022/08/18 02:19:37;;;;;;;12.70;8.77;;;;;;;22.36;69.44;99930.02;1748988;80;20999;-74
2022/08/18 02:22:04;;;;;;;13.35;9.60;;;;;;;22.36;69.36;99923.80;1748968;80;21545;-77
2022/08/18 02:24:31;;;;;;;12.87;9.07;;;;;;;22.27;69.60;99928.05;1748629;80;21520;-75
2022/08/18 02:26:58;;;;;;;13.87;8.90;;;;;;;22.24;69.70;99930.11;1748970;80;21410;-75
2022/08/18 02:29:25;;;;;;;12.00;9.87;;;;;;;22.20;69.81;99922.43;1719266;82;21469;-74
2022/08/18 02:31:53;;;;;;;12.47;8.80;;;;;;;22.18;69.89;99913.84;1719117;82;21042;-74
2022/08/18 02:34:20;;;;;;;11.93;9.40;;;;;;;22.17;69.95;99919.84;1689095;82;21073;-74
2022/08/18 02:36:46;;;;;;;11.83;9.23;;;;;;;22.16;70.01;99922.34;1719197;82;21089;-74
2022/08/18 02:39:13;;;;;;;13.80;9.53;;;;;;;22.15;70.02;99922.13;1719034;82;21639;-74
2022/08/18 02:41:40;;;;;;;12.53;9.37;;;;;;;22.13;70.03;99922.23;1719052;82;21299;-74
2022/08/18 02:44:07;;;;;;;13.77;9.53;;;;;;;22.10;70.04;99918.27;1718852;82;21042;-74
2022/08/18 02:46:35;;;;;;;11.67;9.23;;;;;;;22.09;70.02;99926.22;1719174;82;20975;-74
2022/08/18 02:49:02;;;;;;;11.70;9.37;;;;;;;22.05;70.07;99930.78;1719129;82;21027;-74
2022/08/18 02:51:29;;;;;;;13.90;9.13;;;;;;;22.03;70.10;99928.97;1732681;79;21576;-75
2022/08/18 02:53:59;;;;;;;12.33;8.87;;;;;;;22.07;70.00;99923.05;1779612;79;21201;-75
2022/08/18 02:56:29;;;;;;;13.47;9.00;;;;;;;22.03;70.02;99924.11;1779723;79;21015;-75
2022/08/18 02:59:01;;;;;;;14.43;9.03;;;;;;;21.98;70.13;99923.23;1774883;79;20995;-73
2022/08/18 03:01:36;;;;;;;12.00;8.85;;;;;;;21.97;70.15;99918.91;1747171;79;21043;-74
2022/08/18 03:04:05;;;;;;;12.97;9.10;;;;;;;21.97;70.08;99925.71;1779672;79;20991;-74
2022/08/18 03:06:33;;;;;;;12.70;9.10;;;;;;;21.97;69.96;99924.92;1779695;79;21131;-74
2022/08/18 03:09:05;;;;;;;12.03;9.00;;;;;;;22.00;69.71;99924.23;1776631;79;20987;-74
2022/08/18 03:11:31;;;;;;;10.40;8.83;;;;;;;21.94;69.82;99933.78;1781499;79;20943;-74
2022/08/18 03:13:59;;;;;;;15.30;9.63;;;;;;;21.90;69.81;99926.89;1781692;79;20956;-73
2022/08/18 03:16:25;;;;;;;11.30;8.80;;;;;;;21.92;69.84;99929.27;1779879;79;21069;-75
2022/08/18 03:18:52;;;;;;;9.47;8.43;;;;;;;21.94;69.83;99925.62;1779243;79;21502;-75
2022/08/18 03:21:22;;;;;;;13.37;8.83;;;;;;;21.93;69.76;99932.99;1779526;79;21232;-75
2022/08/18 03:23:52;;;;;;;11.57;8.70;;;;;;;21.91;69.69;99934.47;1779691;79;20947;-75
2022/08/18 03:26:22;;;;;;;11.10;8.50;;;;;;;21.88;69.74;99937.34;1770440;79;21062;-74
2022/08/18 03:28:50;;;;;;;14.17;8.60;;;;;;;21.89;69.77;99946.28;1748821;80;21469;-74
2022/08/18 03:31:18;;;;;;;11.60;9.00;;;;;;;21.96;69.53;99946.47;1748827;80;21125;-75
2022/08/18 03:33:46;;;;;;;10.53;8.43;;;;;;;21.88;69.68;99949.58;1748704;80;20995;-74
2022/08/18 03:36:18;;;;;;;10.83;8.83;;;;;;;21.89;69.70;99950.36;1748842;80;21010;-74
2022/08/18 03:38:47;;;;;;;11.93;8.27;;;;;;;21.91;69.68;99956.22;1717658;80;21042;-74
2022/08/18 03:41:16;;;;;;;11.13;8.50;;;;;;;21.94;69.59;99959.61;1748818;80;21085;-74
2022/08/18 03:43:43;;;;;;;14.03;8.83;;;;;;;21.97;69.51;99962.42;1748785;80;21116;-74
2022/08/18 03:46:13;;;;;;;10.73;7.90;;;;;;;22.03;69.37;99969.77;1748750;80;21022;-74
2022/08/18 03:48:42;;;;;;;12.93;8.03;;;;;;;22.07;69.10;99963.84;1748935;80;21482;-72
2022/08/18 03:51:13;;;;;;;14.50;7.70;;;;;;;22.19;68.72;99964.38;1748785;80;21518;-74
2022/08/18 03:53:40;;;;;;;;;;;;;;;22.37;68.14;99966.19;1751607;80;20979;-74
2022/08/18 03:56:15;;;;;;;11.27;7.10;;;;;;;22.30;67.62;99970.87;1757015;80;21622;-75
2022/08/18 03:58:49;;;;;;;13.53;7.20;;;;;;;22.27;67.41;99967.48;1779474;79;20991;-75
2022/08/18 04:01:19;;;;;;;12.03;7.40;;;;;;;22.27;66.99;99966.70;1779691;79;20944;-74
2022/08/18 04:03:49;;;;;;;11.13;7.27;;;;;;;22.32;66.72;99970.54;1779593;79;21007;-74
2022/08/18 04:06:19;;;;;;;11.12;7.15;;;;;;;22.35;66.37;99967.91;1756114;79;21012;-74
2022/08/18 04:08:46;;;;;;;9.43;6.63;;;;;;;22.41;66.08;99968.45;1748644;80;21104;-74
2022/08/18 04:11:14;;;;;;;9.77;7.17;;;;;;;22.44;65.37;99964.45;1748671;80;21061;-75
2022/08/18 04:13:41;;;;;;;9.23;6.70;;;;;;;22.57;65.17;99963.76;1767843;79;21485;-74
2022/08/18 04:16:09;;;;;;;10.60;7.17;;;;;;;22.62;64.87;99968.16;1779676;79;21546;-75
2022/08/18 04:18:35;;;;;;;9.13;6.13;;;;;;;22.67;64.29;99966.52;1779808;79;20987;-75
2022/08/18 04:21:08;;;;;;;10.93;6.00;;;;;;;22.71;63.69;99957.31;1776863;79;21099;-76
2022/08/18 04:23:36;;;;;;;9.30;5.90;;;;;;;22.78;63.29;99955.91;1779577;79;21537;-74
2022/08/18 04:26:03;;;;;;;9.80;6.17;;;;;;;22.71;62.88;99953.23;1755908;80;21058;-73
2022/08/18 04:28:30;;;;;;;9.53;6.57;;;;;;;22.69;62.96;99952.00;1776866;79;20983;-74
2022/08/18 04:30:58;;;;;;;7.30;5.43;;;;;;;22.73;62.72;99949.36;1779644;79;21006;-75
2022/08/18 04:33:26;;;;;;;10.33;6.47;;;;;;;22.88;62.18;99958.08;1779893;79;21664;-75
2022/08/18 04:35:54;;;;;;;7.87;6.00;;;;;;;22.82;62.01;99953.47;1801474;79;21738;-75
2022/08/18 04:38:22;;;;;;;10.23;6.87;;;;;;;22.78;62.05;99954.55;1804826;79;21095;-75
2022/08/18 04:40:50;;;;;;;9.57;6.90;;;;;;;22.78;62.16;99957.27;1805762;79;20956;-74
2022/08/18 04:43:17;;;;;;;10.77;6.17;;;;;;;22.81;61.77;99966.09;1774475;79;21506;-74
2022/08/18 04:45:47;;;;;;;7.97;6.33;;;;;;;22.79;61.55;99963.70;1796026;79;21812;-74
2022/08/18 04:48:15;;;;;;;9.07;6.20;;;;;;;22.83;61.89;99959.70;1804506;79;21471;-74
2022/08/18 04:50:42;;;;;;;9.53;6.47;;;;;;;22.90;61.70;99967.48;1804654;79;20979;-75
2022/08/18 04:55:55;;;;;;;8.77;5.80;;;;;;;22.98;61.37;99969.81;1805002;79;21027;-74
2022/08/18 04:58:22;;;;;;;9.73;6.10;;;;;;;23.04;61.44;99968.40;1804801;79;21111;-74
2022/08/18 05:00:58;;;;;;;10.83;6.33;;;;;;;23.09;60.60;99973.55;1801651;79;20968;-74
2022/08/18 05:03:25;;;;;;;13.27;7.43;;;;;;;23.13;60.59;99964.91;1804839;79;20988;-74
2022/08/18 05:05:57;;;;;;;11.43;6.60;;;;;;;23.18;60.46;99977.45;1783886;79;21042;-73
2022/08/18 05:08:24;;;;;;;12.03;6.17;;;;;;;23.27;60.23;99969.09;1773014;81;21561;-75
2022/08/18 05:10:58;;;;;;;9.40;5.83;;;;;;;23.36;60.06;99977.83;1772976;81;21237;-74
2022/08/18 05:13:25;;;;;;;9.63;6.40;;;;;;;23.47;59.53;99977.49;1790525;79;21447;-74
2022/08/18 05:15:55;;;;;;;8.43;5.60;;;;;;;23.49;58.70;99982.57;1804583;79;21019;-73
2022/08/18 05:18:23;;;;;;;10.50;6.27;;;;;;;23.52;58.81;99981.28;1805064;79;21534;-73
2022/08/18 05:20:52;;;;;;;10.07;5.67;;;;;;;23.62;58.97;99977.19;1804821;79;21058;-75
2022/08/18 05:23:19;;;;;;;9.23;6.13;;;;;;;23.70;58.35;99974.09;1797845;79;21235;-75
2022/08/18 05:25:46;;;;;;;8.30;5.60;;;;;;;23.72;58.25;99979.95;1773368;81;21000;-74
2022/08/18 05:28:13;;;;;;;8.67;5.50;;;;;;;23.78;58.01;99982.61;1772669;80;21063;-75
2022/08/18 05:30:41;;;;;;;7.47;5.67;;;;;;;23.79;57.49;99989.08;1773070;81;21546;-73
2022/08/18 05:33:11;;;;;;;8.13;5.93;;;;;;;23.78;57.45;99987.48;1772856;80;21027;-75
2022/08/18 05:35:46;;;;;;;7.57;5.20;;;;;;;23.81;57.71;99985.98;1773205;81;21191;-75
2022/08/18 05:38:41;;;;;;;10.67;5.63;;;;;;;23.89;57.28;99984.98;1772869;81;21000;-75
2022/08/18 05:41:16;;;;;;;8.83;5.40;;;;;;;23.93;56.89;99981.73;1773002;81;21482;-75
2022/08/18 05:43:45;;;;;;;7.90;5.77;;;;;;;24.01;56.79;99973.89;1772841;80;21003;-73
2022/08/18 05:46:12;;;;;;;8.40;5.47;;;;;;;24.06;56.58;99979.06;1771403;81;21014;-73
2022/08/18 05:48:39;;;;;;;10.70;5.83;;;;;;;24.10;56.32;99978.55;1748801;80;21411;-73
2022/08/18 05:51:20;;;;;;;7.37;5.40;;;;;;;24.15;55.82;99973.94;1773086;80;20971;-75
2022/08/18 05:56:45;;;;;;;9.40;5.83;;;;;;;24.26;56.14;99976.30;1724072;80;21046;-75
2022/08/18 05:59:17;;;;;;;7.53;5.77;;;;;;;24.35;55.40;99978.21;1773346;80;21031;-74
2022/08/18 06:01:50;;;;;;;7.63;5.63;;;;;;;24.45;55.57;99970.80;1774790;80;21731;-73
2022/08/18 06:04:40;;;;;;;7.70;5.53;;;;;;;24.58;54.89;99974.14;1750655;80;20991;-74
2022/08/18 06:07:10;;;;;;;9.47;5.57;;;;;;;24.70;54.85;99974.50;1778808;80;21027;-73
2022/08/18 06:09:53;;;;;;;8.70;5.80;;;;;;;24.78;53.82;99976.20;1779620;80;20956;-73
2022/08/18 06:12:32;;;;;;;8.13;5.55;;;;;;;24.83;54.17;99981.92;1779357;80;21062;-76
2022/08/18 06:15:14;;;;;;;9.60;5.80;;;;;;;24.91;54.04;99984.41;1771703;80;21160;-74
2022/08/18 06:18:09;;;;;;;9.48;5.80;;;;;;;25.16;53.40;99977.16;1695696;80;20983;-74
2022/08/18 06:21:13;;;;;;;8.40;5.53;;;;;;;25.08;53.66;99989.91;1778954;80;20924;-74
2022/08/18 06:24:12;;;;;;;9.97;6.20;;;;;;;25.16;53.50;99981.25;1779066;80;21034;-75
2022/08/18 06:26:51;;;;;;;11.17;5.93;;;;;;;25.22;53.33;99985.25;1768524;79;21038;-75
2022/08/18 06:29:46;;;;;;;10.37;5.80;;;;;;;25.31;52.99;99987.13;1773500;80;21224;-75
2022/08/18 06:32:40;;;;;;;11.67;6.10;;;;;;;25.40;52.58;99986.28;1766685;80;20995;-74
2022/08/18 06:35:18;;;;;;;8.70;5.90;;;;;;;25.46;52.44;99979.30;1748044;82;20992;-74
2022/08/18 06:40:48;;;;;;;8.40;6.00;;;;;;;25.64;51.99;99980.13;1748046;82;20950;-74
2022/08/18 06:43:15;;;;;;;9.53;6.30;;;;;;;25.67;51.84;99982.11;1748052;82;21099;-73
2022/08/18 06:45:47;;;;;;;9.33;6.40;;;;;;;25.71;52.02;99991.92;1796560;79;20920;-74
2022/08/18 06:48:39;;;;;;;8.60;6.35;;;;;;;25.77;51.22;99988.28;1810864;79;20979;-75
2022/08/18 06:51:06;;;;;;;;;;;;;;;25.78;50.85;99984.38;1786482;79;20986;-75
2022/08/18 06:54:00;;;;;;;13.00;6.63;;;;;;;25.79;50.91;99980.47;1778838;80;20170;-74
2022/08/18 06:56:41;;;;;;;9.70;6.27;;;;;;;25.85;51.08;99980.97;1766998;80;21166;-74
2022/08/18 06:59:30;;;;;;;9.43;6.03;;;;;;;25.95;50.76;99982.44;1778457;80;20988;-74
2022/08/18 07:02:11;;;;;;;7.90;5.97;;;;;;;26.03;50.70;99978.41;1779127;80;21018;-75
2022/08/18 07:04:45;;;;;;;9.78;6.40;;;;;;;26.13;50.60;99984.01;1751660;78;21050;-77
2022/08/18 07:07:35;;;;;;;8.37;5.80;;;;;;;26.21;50.38;99982.11;1797219;79;21015;-76
2022/08/18 07:10:06;;;;;;;8.67;6.17;;;;;;;26.28;49.91;99982.77;1804915;79;21119;-75
2022/08/18 07:12:33;;;;;;;9.53;6.60;;;;;;;26.34;49.69;99987.52;1800478;79;21522;-74
2022/08/18 07:15:01;;;;;;;9.43;6.33;;;;;;;26.39;49.57;99991.84;1804831;79;21188;-74
2022/08/18 07:17:36;;;;;;;8.73;5.53;;;;;;;26.42;49.53;99989.72;1804897;79;21534;-75
2022/08/18 07:20:23;;;;;;;8.87;5.33;;;;;;;26.44;49.86;99981.34;1795742;79;21038;-75
2022/08/18 07:22:59;;;;;;;10.30;6.17;;;;;;;26.52;49.49;99981.42;1772923;81;21228;-74
2022/08/18 07:25:42;;;;;;;8.63;6.20;;;;;;;26.53;49.22;99974.80;1773334;81;21569;-75
2022/08/18 07:28:29;;;;;;;8.60;5.93;;;;;;;26.58;49.26;99987.55;1748966;80;21821;-75
2022/08/18 07:31:25;;;;;;;8.93;6.27;;;;;;;26.67;49.25;99980.38;1773435;81;21015;-74
2022/08/18 07:34:03;;;;;;;8.47;5.73;;;;;;;26.76;49.18;99984.17;1749256;80;20963;-73
2022/08/18 07:36:40;;;;;;;10.60;6.60;;;;;;;26.89;49.58;99990.33;1761047;81;21553;-74
2022/08/18 07:39:32;;;;;;;10.07;6.70;;;;;;;27.03;49.40;99989.63;1748367;80;20979;-75
2022/08/18 07:42:16;;;;;;;10.87;6.27;;;;;;;27.16;48.80;99982.50;1748894;80;21074;-75
2022/08/18 07:44:52;;;;;;;7.97;5.90;;;;;;;27.21;48.41;99989.75;1761948;81;20988;-75
2022/08/18 07:47:35;;;;;;;10.83;6.30;;;;;;;27.24;47.88;99988.98;1749036;80;21007;-74
2022/08/18 07:50:03;;;;;;;10.07;6.17;;;;;;;27.31;48.32;99990.42;1697537;80;21139;-76
2022/08/18 07:52:37;;;;;;;9.67;6.07;;;;;;;27.44;47.55;99996.92;1772904;80;21042;-77
2022/08/18 07:55:34;;;;;;;7.50;4.70;;;;;;;27.51;46.82;99988.72;1748965;80;20994;-76
2022/08/18 07:58:25;;;;;;;11.43;5.07;;;;;;;27.60;47.29;99996.02;1732893;81;21012;-75
2022/08/18 08:01:01;;;;;;;9.80;5.07;;;;;;;27.72;45.51;99992.93;1773295;81;21403;-75
2022/08/18 08:03:51;;;;;;;12.13;5.10;;;;;;;27.82;45.00;99987.31;1747176;80;21285;-74
2022/08/18 08:06:49;;;;;;;8.83;4.77;;;;;;;27.91;44.14;99982.83;1749378;80;20952;-75
2022/08/18 08:09:39;;;;;;;8.53;4.73;;;;;;;27.91;43.63;99986.95;1773062;80;21000;-74
2022/08/18 08:12:26;;;;;;;8.87;4.73;;;;;;;27.96;44.52;99985.18;1772180;81;21141;-74
2022/08/18 08:15:05;;;;;;;9.20;4.60;;;;;;;28.04;43.45;99988.16;1719145;82;20976;-75
2022/08/18 08:17:37;;;;;;;6.73;4.53;;;;;;;28.08;42.12;99984.04;1717519;82;21205;-75
2022/08/18 08:20:09;;;;;;;9.20;4.43;;;;;;;28.10;42.98;99982.48;1776112;79;21106;-76
2022/08/18 08:22:41;;;;;;;6.30;4.57;;;;;;;28.16;42.92;99976.78;1772936;81;20999;-74
2022/08/18 08:25:25;;;;;;;7.23;4.33;;;;;;;28.16;42.50;99968.54;1748774;80;21466;-74
2022/08/18 08:28:09;;;;;;;7.93;4.80;;;;;;;28.20;42.66;99966.61;1772821;81;21003;-74
2022/08/18 08:30:47;;;;;;;7.77;4.40;;;;;;;28.24;43.57;99971.50;1744897;80;21137;-75
2022/08/18 08:33:35;;;;;;;8.17;4.77;;;;;;;28.34;43.51;99974.06;1770358;81;20987;-74
2022/08/18 08:36:09;;;;;;;6.40;4.83;;;;;;;28.46;42.25;99980.58;1773385;81;21509;-74
2022/08/18 08:38:53;;;;;;;7.20;4.40;;;;;;;28.55;42.61;99984.29;1772872;81;20955;-75
2022/08/18 08:41:42;;;;;;;8.57;4.97;;;;;;;28.63;42.96;99983.69;1773539;81;20979;-76
2022/08/18 08:44:20;;;;;;;9.93;4.80;;;;;;;28.71;42.87;99988.80;1771187;80;21137;-75
2022/08/18 08:46:52;;;;;;;8.00;5.47;;;;;;;28.74;42.41;99994.88;1773179;81;21471;-74
2022/08/18 08:49:28;;;;;;;;;;;;;;;28.71;42.73;100000.38;1775667;81;20944;-73
2022/08/18 08:52:03;;;;;;;6.87;4.73;;;;;;;28.71;42.67;100003.13;1773135;80;20196;-73
2022/08/18 08:54:55;;;;;;;9.43;4.60;;;;;;;28.75;42.73;100000.56;1772881;81;21559;-76
2022/08/18 08:57:26;;;;;;;8.53;4.97;;;;;;;28.85;42.73;100003.70;1773296;81;21838;-74
2022/08/18 08:59:53;;;;;;;;;;;;;;;28.97;42.60;100011.55;1751283;80;21046;-75
2022/08/18 09:02:43;;;;;;;7.23;4.37;;;;;;;28.99;42.03;100005.08;1744328;81;20407;-75
2022/08/18 09:05:23;;;;;;;9.83;4.83;;;;;;;28.98;42.14;100005.64;1756176;80;21104;-73
2022/08/18 09:08:06;;;;;;;;;;;;;;;29.04;41.25;100002.53;1759513;80;20955;-75
2022/08/18 09:11:07;;;;;;;8.33;4.70;;;;;;;29.10;41.84;100007.23;1755761;80;21090;-75
2022/08/18 09:13:49;;;;;;;6.23;3.83;;;;;;;29.16;41.61;100000.15;1772305;81;20971;-75
2022/08/18 09:16:57;;;;;;;5.80;4.28;;;;;;;29.30;41.38;100000.69;1772237;81;22049;-74
2022/08/18 09:20:11;;;;;;;9.40;4.40;;;;;;;29.39;41.51;99996.16;1773365;81;20960;-74
2022/08/18 09:22:53;;;;;;;8.83;4.50;;;;;;;29.42;41.22;99999.48;1773355;80;20936;-73
2022/08/18 09:25:42;;;;;;;8.57;4.50;;;;;;;29.48;42.01;99992.96;1756806;80;21787;-74
2022/08/18 09:28:29;;;;;;;6.20;4.17;;;;;;;29.59;41.45;99987.61;1736705;81;21145;-75
2022/08/18 09:31:07;;;;;;;6.73;4.30;;;;;;;29.71;41.20;99988.37;1773478;80;21054;-74
2022/08/18 09:33:44;;;;;;;7.67;4.30;;;;;;;29.72;40.02;99980.32;1772951;81;21074;-75
2022/08/18 09:36:46;;;;;;;9.57;4.60;;;;;;;29.59;39.94;99987.61;1773148;81;21031;-74
2022/08/18 09:42:38;;;;;;;7.00;3.80;;;;;;;29.60;40.75;99989.20;1748832;80;21038;-75
2022/08/18 09:45:09;;;;;;;7.23;3.97;;;;;;;29.64;40.38;99984.46;1709764;80;20995;-75
2022/08/18 09:47:42;;;;;;;7.50;4.40;;;;;;;29.67;40.89;99989.77;1773458;81;21217;-75
2022/08/18 09:50:23;;;;;;;8.40;4.10;;;;;;;29.72;40.81;99991.33;1773182;80;20976;-75
2022/08/18 09:52:49;;;;;;;7.03;3.90;;;;;;;29.78;40.76;99999.33;1741596;80;26649;-74
2022/08/18 09:55:24;;;;;;;6.33;4.40;;;;;;;29.87;40.17;99991.42;1773266;80;21050;-75
2022/08/18 09:58:13;;;;;;;10.70;4.90;;;;;;;29.99;39.80;99991.56;1773389;80;21043;-74
2022/08/18 10:00:40;;;;;;;7.97;4.20;;;;;;;30.07;39.74;99999.95;1773015;81;21465;-75
2022/08/18 10:03:23;;;;;;;7.50;4.23;;;;;;;30.16;39.57;99997.55;1773439;81;21525;-75
2022/08/18 10:06:07;;;;;;;7.17;4.40;;;;;;;30.16;39.70;99994.79;1773210;81;21413;-74
2022/08/18 10:08:51;;;;;;;9.47;3.90;;;;;;;30.18;39.70;99997.16;1772144;81;20984;-74
2022/08/18 10:11:39;;;;;;;5.20;4.00;;;;;;;30.22;39.14;99994.59;1772721;81;21039;-74
2022/08/18 10:14:29;;;;;;;11.03;4.43;;;;;;;30.22;38.94;99987.70;1748952;80;20935;-74
2022/08/18 10:17:22;;;;;;;7.97;4.23;;;;;;;30.22;39.50;99989.67;1733480;80;20971;-74
2022/08/18 10:19:54;;;;;;;8.40;4.13;;;;;;;30.24;39.32;99991.41;1771575;81;21078;-73
2022/08/18 10:22:45;;;;;;;13.00;4.43;;;;;;;30.32;39.58;99990.97;1743639;81;21534;-75
2022/08/18 10:25:13;;;;;;;7.53;5.05;;;;;;;30.38;39.23;99989.95;1773612;81;20968;-75
2022/08/18 10:27:51;;;;;;;7.43;3.70;;;;;;;30.35;39.26;99993.52;1773138;81;21057;-73
2022/08/18 10:30:38;;;;;;;8.47;3.87;;;;;;;30.33;39.36;99995.88;1781270;79;20983;-74
2022/08/18 10:33:08;;;;;;;8.67;4.87;;;;;;;30.37;38.61;99980.91;1805427;79;21606;-74
2022/08/18 10:35:40;;;;;;;8.20;4.40;;;;;;;30.39;38.63;99987.38;1800725;79;21011;-74
2022/08/18 10:38:19;;;;;;;7.17;4.27;;;;;;;30.44;39.09;99986.14;1804441;79;21031;-74
2022/08/18 10:41:06;;;;;;;7.70;4.13;;;;;;;30.57;39.83;99984.48;1805102;79;21097;-75
2022/08/18 10:43:45;;;;;;;9.10;4.40;;;;;;;30.76;38.89;99992.19;1801598;79;20980;-74
2022/08/18 10:46:23;;;;;;;7.50;3.90;;;;;;;30.90;38.93;99987.16;1805090;79;21074;-74
2022/08/18 10:49:13;;;;;;;6.60;3.87;;;;;;;30.99;38.79;99981.92;1800176;79;21067;-74
2022/08/18 10:51:59;;;;;;;7.58;3.92;;;;;;;31.02;38.35;99989.38;1804701;79;21051;-74
2022/08/18 10:54:35;;;;;;;5.30;3.80;;;;;;;31.04;38.82;99988.98;1803596;79;21047;-74
2022/08/18 10:57:20;;;;;;;7.77;4.20;;;;;;;31.07;38.06;99988.16;1805233;79;20988;-74
2022/08/18 11:00:06;;;;;;;7.33;4.10;;;;;;;31.07;38.80;99994.45;1800186;79;21778;-74
2022/08/18 11:02:45;;;;;;;5.60;4.20;;;;;;;31.02;37.76;99986.61;1804428;79;21074;-74
2022/08/18 11:05:14;;;;;;;8.17;4.37;;;;;;;30.95;38.01;99992.81;1804360;79;20996;-74
2022/08/18 11:07:42;;;;;;;7.83;4.27;;;;;;;30.91;38.02;99987.34;1803408;79;20991;-74
2022/08/18 11:10:23;;;;;;;8.13;4.00;;;;;;;31.05;37.95;99995.45;1714482;81;20963;-74
2022/08/18 11:13:10;;;;;;;6.12;4.05;;;;;;;31.17;37.83;99990.02;1773095;80;22413;-73
2022/08/18 11:15:59;;;;;;;6.03;3.97;;;;;;;31.06;37.78;100003.13;1773425;81;20991;-75
2022/08/18 11:18:36;;;;;;;8.00;4.40;;;;;;;31.05;37.91;99995.45;1750422;80;20925;-73
2022/08/18 11:21:37;;;;;;;7.83;3.83;;;;;;;31.13;38.05;100005.02;1714807;82;20928;-75
2022/08/18 11:24:11;;;;;;;7.57;4.00;;;;;;;31.12;37.38;99995.20;1744019;81;21298;-74
2022/08/18 11:26:54;;;;;;;7.23;4.33;;;;;;;31.13;37.23;99988.47;1785239;79;21168;-75
2022/08/18 11:29:39;;;;;;;5.67;4.00;;;;;;;31.10;37.14;99996.19;1807902;79;21047;-74
2022/08/18 11:32:14;;;;;;;7.10;4.10;;;;;;;31.07;37.68;99989.55;1808477;79;21017;-73
2022/08/18 11:34:50;;;;;;;5.77;3.73;;;;;;;31.04;37.28;99987.00;1808673;79;20995;-74
2022/08/18 11:37:42;;;;;;;5.60;3.77;;;;;;;31.07;37.25;99977.13;1808769;79;21022;-74
2022/08/18 11:40:23;;;;;;;6.77;3.90;;;;;;;31.13;37.43;99976.06;1804589;79;21327;-73
2022/08/18 11:43:13;;;;;;;9.63;3.80;;;;;;;31.23;37.82;99982.08;1808407;79;21430;-74
2022/08/18 11:45:51;;;;;;;7.28;4.35;;;;;;;31.31;37.29;99980.79;1774864;79;21486;-74
2022/08/18 11:48:43;;;;;;;8.43;4.27;;;;;;;31.32;37.17;99979.58;1808226;79;21058;-74
2022/08/18 11:51:27;;;;;;;6.50;3.77;;;;;;;31.40;37.46;99982.48;1775496;79;20930;-74
2022/08/18 11:53:59;;;;;;;5.43;3.90;;;;;;;31.43;37.13;99974.77;1808179;79;21137;-74
2022/08/18 11:56:33;;;;;;;9.67;3.97;;;;;;;31.43;36.73;99967.86;1808611;79;21442;-74
2022/08/18 11:59:04;;;;;;;8.07;3.90;;;;;;;31.37;36.57;99972.88;1809030;78;21054;-75
2022/08/18 12:01:49;;;;;;;7.87;4.07;;;;;;;31.35;36.61;99970.52;1808838;79;21026;-73
2022/08/18 12:04:33;;;;;;;7.33;3.90;;;;;;;31.38;36.69;99969.69;1808403;79;20954;-73
2022/08/18 12:07:14;;;;;;;6.20;3.57;;;;;;;31.41;36.32;99971.63;1792284;78;21217;-75
2022/08/18 12:09:49;;;;;;;7.72;3.95;;;;;;;31.41;36.14;99966.11;1759562;80;21003;-73
2022/08/18 12:12:30;;;;;;;6.13;3.53;;;;;;;31.44;36.40;99961.14;1756581;81;21121;-74
2022/08/18 12:15:15;;;;;;;9.60;3.67;;;;;;;31.53;37.07;99964.78;1742816;82;20960;-73
2022/08/18 12:17:44;;;;;;;5.23;3.70;;;;;;;31.61;36.63;99962.70;1742682;82;21474;-74
2022/08/18 12:20:11;;;;;;;7.73;3.97;;;;;;;31.63;35.83;99963.86;1742699;82;21098;-73
2022/08/18 12:22:41;;;;;;;7.47;3.83;;;;;;;31.59;35.87;99958.98;1742920;82;20931;-75
2022/08/18 12:25:12;;;;;;;6.07;3.63;;;;;;;31.62;36.06;99965.64;1742403;82;21030;-74
2022/08/18 12:27:43;;;;;;;9.35;4.30;;;;;;;31.66;35.92;99968.55;1743144;82;21043;-75
2022/08/18 12:30:12;;;;;;;6.60;3.60;;;;;;;31.68;36.24;99966.74;1742542;82;21019;-75